Time;durP1;ratioP1;P1;durP2;ratioP2;P2;SDS_P1;SDS_P2;PMS_P1;PMS_P2;Temp;Humidity;BMP_temperature;BMP_pressure;BME280_temperature;BME280_humidity;BME280_pressure;Samples;Min_cycle;Max_cycle;Signal;HPM_P1;HPM_P2
2022/03/24 00:01:25;;;;;;;0.30;0.17;;;8.60;99.50;;;;;;5054691;28;20032;-72
2022/03/24 00:03:50;;;;;;;0.32;0.30;;;8.60;99.60;;;;;;5054643;28;20403;-73
2022/03/24 00:06:16;;;;;;;2.55;1.92;;;8.60;99.70;;;;;;5054759;28;20028;-73
2022/03/24 00:08:42;;;;;;;0.38;0.38;;;8.50;99.90;;;;;;5054228;28;20555;-73
2022/03/24 00:11:08;;;;;;;0.10;0.10;;;8.40;99.90;;;;;;5054429;28;20021;-73
2022/03/24 00:13:33;;;;;;;0.80;0.68;;;8.40;99.90;;;;;;5053760;28;20377;-72
2022/03/24 00:15:59;;;;;;;0.38;0.38;;;8.30;99.90;;;;;;5054645;28;20021;-72
2022/03/24 00:18:25;;;;;;;0.15;0.15;;;8.20;99.90;;;;;;5053569;28;20021;-73
2022/03/24 00:20:51;;;;;;;0.75;0.60;;;8.20;99.90;;;;;;5054574;28;20028;-72
2022/03/24 00:23:16;;;;;;;0.45;0.22;;;8.10;99.90;;;;;;5054262;28;20052;-72
2022/03/24 00:25:43;;;;;;;0.32;0.30;;;8.00;99.90;;;;;;5054132;28;20396;-72
2022/03/24 00:28:08;;;;;;;0.70;0.70;;;8.00;99.90;;;;;;5054206;28;20029;-72
2022/03/24 00:30:34;;;;;;;0.32;0.32;;;7.90;99.90;;;;;;5054284;28;20032;-72
2022/03/24 00:33:00;;;;;;;4.28;1.00;;;7.90;99.90;;;;;;5054141;28;20029;-73
2022/03/24 00:35:26;;;;;;;0.80;0.57;;;7.90;99.90;;;;;;5053968;28;20025;-72
2022/03/24 00:37:51;;;;;;;0.15;0.15;;;8.00;99.90;;;;;;5047617;28;20041;-73
2022/03/24 00:40:17;;;;;;;0.30;0.30;;;8.00;99.90;;;;;;5053684;28;20102;-72
2022/03/24 00:42:44;;;;;;;0.10;0.10;;;8.00;99.90;;;;;;5052589;28;20029;-72
2022/03/24 00:45:12;;;;;;;0.17;0.17;;;8.00;99.90;;;;;;5053952;28;20075;-72
2022/03/24 00:47:39;;;;;;;0.00;0.00;;;7.90;99.90;;;;;;5053952;28;20025;-73
2022/03/24 00:50:05;;;;;;;0.22;0.22;;;7.90;99.90;;;;;;5053679;28;20037;-72
2022/03/24 00:52:31;;;;;;;4.15;0.52;;;7.80;99.90;;;;;;5052977;28;20025;-72
2022/03/24 00:54:56;;;;;;;0.47;0.47;;;7.90;99.90;;;;;;5053305;28;20385;-72
2022/03/24 00:57:22;;;;;;;0.05;0.05;;;7.80;99.90;;;;;;5053530;28;20079;-73
2022/03/24 00:59:48;;;;;;;0.00;0.00;;;7.70;99.90;;;;;;5053646;28;20484;-73
2022/03/24 01:02:14;;;;;;;1.05;0.57;;;7.70;99.90;;;;;;5053455;28;20110;-72
2022/03/24 01:04:41;;;;;;;4.18;2.63;;;7.60;99.90;;;;;;5053792;28;20032;-73
2022/03/24 01:07:07;;;;;;;1.25;1.05;;;7.50;99.90;;;;;;5053608;28;20021;-72
2022/03/24 01:09:33;;;;;;;0.20;0.20;;;7.50;99.90;;;;;;5052888;28;20029;-73
2022/03/24 01:11:58;;;;;;;0.93;0.93;;;7.40;99.90;;;;;;5053409;28;20025;-73
2022/03/24 01:14:25;;;;;;;0.08;0.08;;;7.40;99.90;;;;;;5052729;28;20118;-73
2022/03/24 01:16:51;;;;;;;0.05;0.00;;;7.40;99.90;;;;;;5053422;28;20393;-73
2022/03/24 01:19:17;;;;;;;0.75;0.30;;;7.30;99.90;;;;;;5053098;28;20024;-73
2022/03/24 01:21:43;;;;;;;0.38;0.38;;;7.30;99.90;;;;;;5053319;28;20017;-72
2022/03/24 01:24:09;;;;;;;0.20;0.20;;;7.30;99.90;;;;;;5052430;28;20036;-73
2022/03/24 01:26:36;;;;;;;0.40;0.40;;;7.30;99.90;;;;;;5052350;28;20065;-73
2022/03/24 01:29:05;;;;;;;0.95;0.47;;;7.20;99.90;;;;;;5053121;28;20100;-73
2022/03/24 01:31:33;;;;;;;0.00;0.00;;;7.30;99.90;;;;;;5053082;28;20033;-72
2022/03/24 01:33:58;;;;;;;1.02;0.28;;;7.30;99.90;;;;;;5053088;28;20108;-72
2022/03/24 01:36:24;;;;;;;0.00;0.00;;;7.40;99.90;;;;;;5046699;28;20529;-72
2022/03/24 01:38:50;;;;;;;0.35;0.20;;;7.40;99.90;;;;;;5052918;28;20546;-73
2022/03/24 01:41:16;;;;;;;0.47;0.47;;;7.40;99.90;;;;;;5052675;28;20561;-73
2022/03/24 01:43:42;;;;;;;0.00;0.00;;;7.40;99.90;;;;;;5052908;28;20409;-72
2022/03/24 01:46:08;;;;;;;3.33;0.75;;;7.40;99.90;;;;;;5051576;28;20103;-73
2022/03/24 01:48:34;;;;;;;0.55;0.55;;;7.40;99.90;;;;;;5052330;28;20435;-73
2022/03/24 01:50:59;;;;;;;0.32;0.32;;;7.30;99.90;;;;;;5052121;28;20033;-73
2022/03/24 01:53:25;;;;;;;4.78;0.47;;;7.30;99.90;;;;;;5052460;28;20521;-72
2022/03/24 01:55:54;;;;;;;0.52;0.52;;;7.30;99.90;;;;;;5052333;28;20502;-73
2022/03/24 01:58:21;;;;;;;0.10;0.10;;;7.40;99.90;;;;;;5052821;28;20040;-73
2022/03/24 02:00:47;;;;;;;0.00;0.00;;;7.30;99.90;;;;;;5052631;28;20032;-72
2022/03/24 02:03:14;;;;;;;2.10;1.35;;;7.30;99.90;;;;;;5051877;28;20021;-73
2022/03/24 02:05:41;;;;;;;0.75;0.75;;;7.30;99.90;;;;;;5052486;28;20025;-73
2022/03/24 02:08:07;;;;;;;0.40;0.30;;;7.20;99.90;;;;;;5051999;28;20029;-73
2022/03/24 02:10:35;;;;;;;0.45;0.22;;;7.20;99.90;;;;;;5052002;28;20029;-73
2022/03/24 02:13:01;;;;;;;0.35;0.35;;;7.20;99.90;;;;;;5052676;28;20068;-72
2022/03/24 02:15:27;;;;;;;0.00;0.00;;;7.20;99.90;;;;;;5052438;28;20395;-73
2022/03/24 02:17:54;;;;;;;0.10;0.10;;;7.20;99.90;;;;;;5052154;28;20025;-73
2022/03/24 02:20:20;;;;;;;0.35;0.35;;;7.10;99.90;;;;;;5052674;28;20076;-72
2022/03/24 02:22:51;;;;;;;0.95;0.82;;;7.10;99.90;;;;;;5052699;28;20025;-72
2022/03/24 02:25:17;;;;;;;3.83;0.22;;;7.00;99.90;;;;;;5051931;28;20021;-72
2022/03/24 02:27:46;;;;;;;0.00;0.00;;;6.90;99.90;;;;;;5052350;28;20037;-72
2022/03/24 02:30:12;;;;;;;1.92;0.47;;;6.80;99.90;;;;;;5052613;28;20029;-72
2022/03/24 02:32:38;;;;;;;0.00;0.00;;;6.80;99.90;;;;;;5052388;28;20036;-73
2022/03/24 02:35:04;;;;;;;2.08;0.65;;;6.70;99.90;;;;;;5053143;28;20029;-73
2022/03/24 02:37:30;;;;;;;0.35;0.25;;;6.70;99.90;;;;;;5049211;28;20123;-72
2022/03/24 02:39:57;;;;;;;0.00;0.00;;;6.60;99.90;;;;;;5054629;28;20539;-72
2022/03/24 02:42:26;;;;;;;0.10;0.05;;;6.60;99.90;;;;;;5056683;28;20025;-71
2022/03/24 02:44:56;;;;;;;1.40;0.65;;;6.60;99.90;;;;;;5056096;28;20527;-72
2022/03/24 02:47:23;;;;;;;0.70;0.70;;;6.50;99.90;;;;;;5056010;28;20450;-73
2022/03/24 02:49:51;;;;;;;1.60;0.88;;;6.50;99.90;;;;;;5055210;28;20047;-72
2022/03/24 02:52:17;;;;;;;0.60;0.52;;;6.40;99.90;;;;;;5055681;28;20029;-72
2022/03/24 02:54:43;;;;;;;0.10;0.10;;;6.40;99.90;;;;;;5055459;28;20127;-72
2022/03/24 02:57:10;;;;;;;0.40;0.40;;;6.50;99.90;;;;;;5056088;28;20159;-73
2022/03/24 02:59:36;;;;;;;0.38;0.38;;;6.40;99.90;;;;;;5055812;28;20431;-72
2022/03/24 03:02:07;;;;;;;0.70;0.60;;;6.40;99.90;;;;;;5055684;28;20420;-72
2022/03/24 03:04:36;;;;;;;0.08;0.08;;;6.40;99.90;;;;;;5056010;28;20021;-72
2022/03/24 03:07:03;;;;;;;0.98;0.93;;;6.40;99.90;;;;;;5055810;28;20047;-73
2022/03/24 03:09:33;;;;;;;1.15;1.08;;;6.40;99.90;;;;;;5054940;28;20051;-73
2022/03/24 03:12:00;;;;;;;3.63;1.65;;;6.30;99.90;;;;;;5053580;28;20040;-73
2022/03/24 03:14:30;;;;;;;0.00;0.00;;;6.30;99.90;;;;;;5035726;28;20034;-72
2022/03/24 03:16:57;;;;;;;0.00;0.00;;;6.30;99.90;;;;;;5035711;28;20026;-72
2022/03/24 03:19:24;;;;;;;0.08;0.08;;;6.30;99.60;;;;;;5035312;28;20030;-73
2022/03/24 03:21:50;;;;;;;0.17;0.17;;;6.30;99.40;;;;;;5035545;28;20022;-72
2022/03/24 03:24:17;;;;;;;0.55;0.55;;;6.40;99.20;;;;;;5035912;28;20036;-73
2022/03/24 03:26:43;;;;;;;0.55;0.30;;;6.40;99.00;;;;;;5035094;28;20469;-73
2022/03/24 03:29:10;;;;;;;0.13;0.13;;;6.40;99.10;;;;;;5034978;28;20022;-73
2022/03/24 03:31:36;;;;;;;0.00;0.00;;;6.50;98.70;;;;;;5035442;28;20473;-73
2022/03/24 03:34:03;;;;;;;0.85;0.15;;;6.50;98.60;;;;;;5035412;28;20497;-72
2022/03/24 03:36:30;;;;;;;0.10;0.10;;;6.40;98.60;;;;;;5036275;28;20500;-72
2022/03/24 03:38:56;;;;;;;0.22;0.22;;;6.50;98.40;;;;;;5055091;28;20017;-72
2022/03/24 03:41:22;;;;;;;0.10;0.10;;;6.50;98.60;;;;;;5054990;28;20029;-72
2022/03/24 03:43:48;;;;;;;0.38;0.30;;;6.40;98.50;;;;;;5055065;28;20542;-72
2022/03/24 03:46:15;;;;;;;0.30;0.22;;;6.40;98.40;;;;;;5054563;28;20037;-73
2022/03/24 03:48:43;;;;;;;0.50;0.50;;;6.30;98.50;;;;;;5054461;28;20409;-72
2022/03/24 03:51:09;;;;;;;0.10;0.10;;;6.30;98.70;;;;;;5054070;28;20025;-72
2022/03/24 03:53:38;;;;;;;0.10;0.10;;;6.20;98.60;;;;;;5054490;28;20043;-73
2022/03/24 03:56:05;;;;;;;0.35;0.20;;;6.30;98.70;;;;;;5054512;28;20584;-72
2022/03/24 03:58:34;;;;;;;0.13;0.13;;;6.20;98.80;;;;;;5055050;28;20033;-73
2022/03/24 04:01:07;;;;;;;0.40;0.22;;;6.20;98.80;;;;;;5055020;28;20013;-72
2022/03/24 04:03:34;;;;;;;1.25;1.15;;;6.20;98.80;;;;;;5054982;28;20064;-74
2022/03/24 04:06:06;;;;;;;0.35;0.35;;;6.30;98.60;;;;;;5054670;28;20025;-73
2022/03/24 04:08:32;;;;;;;0.40;0.35;;;6.20;98.60;;;;;;5054812;28;20061;-72
2022/03/24 04:10:58;;;;;;;0.13;0.10;;;6.20;98.60;;;;;;5054106;28;20456;-73
2022/03/24 04:13:24;;;;;;;0.10;0.10;;;6.20;98.90;;;;;;5053832;28;20032;-72
2022/03/24 04:15:51;;;;;;;0.00;0.00;;;6.10;98.70;;;;;;5054340;28;20025;-72
2022/03/24 04:18:17;;;;;;;0.05;0.05;;;6.10;98.60;;;;;;5054386;28;20027;-73
2022/03/24 04:20:43;;;;;;;0.25;0.25;;;6.10;98.80;;;;;;5054550;28;20021;-72
2022/03/24 04:23:11;;;;;;;0.45;0.43;;;6.00;98.80;;;;;;5053930;28;20029;-73
2022/03/24 04:25:37;;;;;;;0.13;0.13;;;6.00;99.10;;;;;;5054233;28;20092;-72
2022/03/24 04:28:04;;;;;;;0.10;0.10;;;6.00;98.70;;;;;;5054018;28;20025;-73
2022/03/24 04:30:31;;;;;;;0.22;0.22;;;5.90;98.90;;;;;;5054507;28;20112;-72
2022/03/24 04:32:57;;;;;;;0.00;0.00;;;5.90;99.30;;;;;;5054106;28;20121;-73
2022/03/24 04:35:23;;;;;;;0.17;0.10;;;5.80;99.30;;;;;;5053973;28;20115;-72
2022/03/24 04:37:50;;;;;;;1.40;1.30;;;5.80;99.30;;;;;;5043842;28;20059;-72
2022/03/24 04:40:17;;;;;;;0.65;0.38;;;5.80;99.30;;;;;;5033781;28;20040;-73
2022/03/24 04:42:45;;;;;;;0.00;0.00;;;5.80;99.40;;;;;;5034033;28;20038;-73
2022/03/24 04:45:13;;;;;;;0.20;0.20;;;5.70;99.30;;;;;;5034094;28;20029;-73
2022/03/24 04:47:42;;;;;;;0.30;0.30;;;5.70;99.40;;;;;;5034411;28;20520;-72
2022/03/24 04:50:08;;;;;;;0.10;0.10;;;5.70;99.60;;;;;;5033529;28;20499;-72
2022/03/24 04:52:34;;;;;;;1.75;1.08;;;5.60;99.40;;;;;;5050672;28;20530;-73
2022/03/24 04:55:00;;;;;;;0.20;0.10;;;5.50;99.30;;;;;;5053363;28;20025;-73
2022/03/24 04:57:27;;;;;;;0.30;0.30;;;5.50;99.70;;;;;;5053054;28;20090;-72
2022/03/24 04:59:53;;;;;;;0.20;0.20;;;5.50;99.70;;;;;;5053511;28;20052;-73
2022/03/24 05:02:19;;;;;;;0.10;0.10;;;5.60;99.30;;;;;;5053401;28;20021;-72
2022/03/24 05:04:45;;;;;;;0.20;0.20;;;5.60;99.20;;;;;;5053778;28;20021;-73
2022/03/24 05:07:11;;;;;;;0.45;0.43;;;5.70;99.00;;;;;;5053631;28;20025;-72
2022/03/24 05:09:38;;;;;;;0.32;0.32;;;5.70;99.10;;;;;;5051636;28;20078;-72
2022/03/24 05:12:04;;;;;;;0.00;0.00;;;5.70;99.00;;;;;;5053273;28;20029;-72
2022/03/24 05:14:31;;;;;;;0.85;0.43;;;5.60;98.80;;;;;;5053569;28;20365;-72
2022/03/24 05:16:57;;;;;;;0.52;0.47;;;5.70;98.90;;;;;;5053347;28;20032;-73
2022/03/24 05:19:23;;;;;;;0.00;0.00;;;5.60;99.00;;;;;;5053091;28;20392;-73
2022/03/24 05:21:49;;;;;;;0.20;0.20;;;5.60;99.00;;;;;;5053250;28;20021;-72
2022/03/24 05:24:15;;;;;;;0.20;0.10;;;5.70;98.70;;;;;;5053359;28;20513;-73
2022/03/24 05:26:41;;;;;;;0.28;0.28;;;5.70;98.90;;;;;;5053242;28;20397;-74
2022/03/24 05:29:06;;;;;;;2.50;0.47;;;5.70;98.60;;;;;;5053132;28;20017;-73
2022/03/24 05:31:32;;;;;;;0.00;0.00;;;5.70;98.90;;;;;;5052711;28;20039;-74
2022/03/24 05:33:58;;;;;;;0.50;0.50;;;5.60;99.10;;;;;;5053022;28;20024;-73
2022/03/24 05:36:23;;;;;;;0.28;0.28;;;5.50;99.10;;;;;;5053476;28;20028;-73
2022/03/24 05:38:51;;;;;;;0.10;0.10;;;5.40;99.30;;;;;;5052811;28;20047;-73
2022/03/24 05:41:17;;;;;;;0.00;0.00;;;5.40;99.50;;;;;;5052742;28;20543;-73
2022/03/24 05:44:02;;;;;;;0.20;0.20;;;5.30;99.50;;;;;;5052925;28;20072;-72
2022/03/24 05:46:44;;;;;;;0.50;0.50;;;5.30;99.60;;;;;;5052798;28;20025;-72
2022/03/24 05:49:15;;;;;;;0.00;0.00;;;5.30;99.60;;;;;;5052955;28;20021;-73
2022/03/24 05:51:42;;;;;;;0.40;0.40;;;5.20;99.70;;;;;;5051916;28;20051;-72
2022/03/24 05:54:09;;;;;;;0.20;0.20;;;5.20;99.70;;;;;;5052570;28;20027;-73
2022/03/24 05:56:35;;;;;;;0.15;0.15;;;5.20;99.90;;;;;;5052805;28;20387;-72
2022/03/24 05:59:00;;;;;;;0.00;0.00;;;5.20;99.90;;;;;;5052888;28;20021;-72
2022/03/24 06:01:26;;;;;;;0.22;0.22;;;5.20;99.90;;;;;;5052597;28;20025;-72
2022/03/24 06:03:52;;;;;;;0.00;0.00;;;5.20;99.70;;;;;;5052005;28;20019;-73
2022/03/24 06:06:19;;;;;;;0.20;0.20;;;5.20;99.60;;;;;;5052197;28;20029;-73
2022/03/24 06:08:47;;;;;;;0.00;0.00;;;5.20;99.80;;;;;;5052635;28;20021;-74
2022/03/24 06:11:13;;;;;;;0.00;0.00;;;5.30;99.60;;;;;;5051742;28;20140;-73
2022/03/24 06:13:40;;;;;;;0.75;0.75;;;5.40;99.60;;;;;;5052458;28;20025;-72
2022/03/24 06:16:07;;;;;;;0.17;0.17;;;5.40;99.40;;;;;;5051172;28;20036;-73
2022/03/24 06:18:35;;;;;;;0.95;0.43;;;5.40;99.50;;;;;;5052260;28;20036;-72
2022/03/24 06:21:01;;;;;;;0.08;0.08;;;5.40;99.70;;;;;;5052553;28;20049;-72
2022/03/24 06:23:27;;;;;;;0.00;0.00;;;5.30;99.70;;;;;;5052444;28;20388;-72
2022/03/24 06:25:53;;;;;;;0.00;0.00;;;5.40;99.80;;;;;;5052395;28;20040;-73
2022/03/24 06:28:19;;;;;;;0.75;0.30;;;5.30;99.90;;;;;;5052244;28;20029;-73
2022/03/24 06:30:44;;;;;;;1.55;1.45;;;5.40;99.70;;;;;;5052445;28;20422;-72
2022/03/24 06:33:10;;;;;;;0.10;0.10;;;5.40;99.70;;;;;;5050936;28;20103;-73
2022/03/24 06:35:36;;;;;;;0.00;0.00;;;5.40;99.70;;;;;;5049955;28;20052;-73
2022/03/24 06:38:03;;;;;;;0.10;0.10;;;5.40;99.90;;;;;;5051391;28;20031;-72
2022/03/24 06:40:29;;;;;;;0.03;0.03;;;5.40;99.90;;;;;;5052378;28;20096;-73
2022/03/24 06:42:54;;;;;;;0.30;0.03;;;5.40;99.90;;;;;;5051562;28;20144;-73
2022/03/24 06:45:20;;;;;;;1.40;1.30;;;5.50;99.90;;;;;;5049112;28;20029;-73
2022/03/24 06:47:46;;;;;;;0.30;0.28;;;5.50;99.90;;;;;;5051553;28;20484;-74
2022/03/24 06:50:13;;;;;;;0.00;0.00;;;5.60;99.90;;;;;;5052065;28;20033;-73
2022/03/24 06:52:40;;;;;;;0.20;0.10;;;5.80;99.60;;;;;;5050912;28;20594;-73
2022/03/24 06:55:07;;;;;;;0.75;0.75;;;5.90;99.60;;;;;;5051482;28;20035;-73
2022/03/24 06:57:33;;;;;;;0.22;0.22;;;6.00;99.10;;;;;;5043167;28;20910;-73
2022/03/24 06:59:58;;;;;;;0.13;0.13;;;6.10;99.30;;;;;;5049108;28;20096;-74
2022/03/24 07:02:24;;;;;;;0.63;0.15;;;6.20;99.10;;;;;;5051294;28;20021;-73
2022/03/24 07:04:50;;;;;;;0.00;0.00;;;6.30;99.20;;;;;;5051685;28;20029;-74
2022/03/24 07:07:15;;;;;;;1.02;0.98;;;6.30;98.60;;;;;;5050072;28;20479;-73
2022/03/24 07:09:41;;;;;;;0.70;0.70;;;6.40;98.70;;;;;;5051248;28;20075;-73
2022/03/24 07:12:07;;;;;;;0.15;0.15;;;6.50;99.20;;;;;;5047973;28;20032;-72
2022/03/24 07:14:33;;;;;;;1.10;1.10;;;6.60;98.90;;;;;;5050659;28;20034;-73
2022/03/24 07:16:58;;;;;;;1.00;0.40;;;6.60;98.60;;;;;;5049837;28;20033;-73
2022/03/24 07:19:24;;;;;;;0.00;0.00;;;6.80;98.60;;;;;;5050646;28;20025;-73
2022/03/24 07:21:50;;;;;;;1.00;0.77;;;6.90;98.60;;;;;;5050878;28;20029;-73
2022/03/24 07:24:15;;;;;;;0.00;0.00;;;7.00;98.40;;;;;;5054526;28;20375;-72
2022/03/24 07:26:41;;;;;;;0.25;0.25;;;7.10;98.30;;;;;;5053906;28;20468;-72
2022/03/24 07:29:10;;;;;;;0.20;0.20;;;7.20;98.60;;;;;;5054197;28;20032;-74
2022/03/24 07:31:37;;;;;;;2.47;0.98;;;7.30;98.30;;;;;;5063789;28;20017;-73
2022/03/24 07:34:02;;;;;;;1.08;0.45;;;7.40;98.30;;;;;;5060783;28;20032;-73
2022/03/24 07:36:28;;;;;;;0.43;0.22;;;7.50;98.60;;;;;;5068666;28;20396;-73
2022/03/24 07:38:56;;;;;;;4.05;0.73;;;7.70;98.10;;;;;;5059977;28;20104;-73
2022/03/24 07:41:22;;;;;;;0.38;0.38;;;8.80;97.40;;;;;;5042794;28;20029;-73
2022/03/24 07:43:48;;;;;;;1.25;1.00;;;10.10;95.40;;;;;;5045704;28;20053;-73
2022/03/24 07:46:14;;;;;;;0.30;0.30;;;9.60;96.00;;;;;;5060371;28;20028;-74
2022/03/24 07:48:40;;;;;;;2.17;0.40;;;9.10;96.80;;;;;;5056232;28;20025;-73
2022/03/24 07:51:07;;;;;;;1.20;1.10;;;9.10;97.30;;;;;;5067636;28;20036;-73
2022/03/24 07:53:49;;;;;;;0.52;0.52;;;9.10;97.80;;;;;;5050212;28;20515;-73
2022/03/24 07:56:17;;;;;;;4.20;0.82;;;9.20;97.90;;;;;;5051644;28;20484;-73
2022/03/24 07:58:43;;;;;;;5.10;0.47;;;9.30;99.10;;;;;;5049461;28;20403;-74
2022/03/24 08:01:10;;;;;;;2.20;1.58;;;9.50;96.20;;;;;;5051785;28;20048;-74
2022/03/24 08:03:36;;;;;;;7.32;2.13;;;9.90;95.70;;;;;;5046099;28;20112;-73
2022/03/24 08:06:02;;;;;;;68.35;3.97;;;11.20;95.50;;;;;;5047268;28;20113;-74
2022/03/24 08:08:28;;;;;;;2.47;1.92;;;14.30;91.10;;;;;;5045096;28;20111;-74
2022/03/24 08:10:55;;;;;;;2.10;0.85;;;16.50;87.20;;;;;;5049849;28;20021;-75
2022/03/24 08:13:23;;;;;;;1.33;0.90;;;17.90;83.60;;;;;;5065946;28;20048;-75
2022/03/24 08:15:49;;;;;;;2.65;1.20;;;18.60;80.50;;;;;;5057613;28;20029;-74
2022/03/24 08:18:16;;;;;;;2.38;1.40;;;19.10;79.10;;;;;;5049067;28;20533;-75
2022/03/24 08:20:44;;;;;;;5.25;1.20;;;19.70;78.70;;;;;;5056375;28;20083;-72
2022/03/24 08:23:11;;;;;;;2.63;1.65;;;20.00;77.40;;;;;;5051520;28;20063;-73
2022/03/24 08:25:41;;;;;;;2.83;1.10;;;20.40;77.60;;;;;;5054413;28;20021;-72
2022/03/24 08:28:07;;;;;;;4.25;1.48;;;21.00;75.60;;;;;;5049768;28;20021;-72
2022/03/24 08:30:33;;;;;;;3.65;1.02;;;21.10;75.40;;;;;;5065894;28;20020;-75
2022/03/24 08:32:59;;;;;;;1.70;1.15;;;20.70;75.20;;;;;;5052935;28;20029;-72
2022/03/24 08:35:25;;;;;;;1.20;0.57;;;19.30;74.80;;;;;;5051112;28;20044;-74
2022/03/24 08:37:51;;;;;;;1.40;1.25;;;17.50;78.10;;;;;;5047832;28;20017;-74
2022/03/24 08:40:18;;;;;;;3.70;1.25;;;17.50;78.80;;;;;;5054262;28;20070;-74
2022/03/24 08:42:44;;;;;;;1.65;0.98;;;19.10;77.20;;;;;;5057650;28;20021;-74
2022/03/24 08:45:13;;;;;;;2.92;0.70;;;20.20;73.80;;;;;;5061162;28;20111;-75
2022/03/24 08:47:39;;;;;;;3.25;1.00;;;20.90;72.20;;;;;;5051352;28;20072;-74
2022/03/24 08:50:07;;;;;;;1.13;1.02;;;21.30;71.80;;;;;;5062112;28;20032;-75
2022/03/24 08:52:35;;;;;;;1.83;1.23;;;22.10;71.00;;;;;;5049649;28;20104;-75
2022/03/24 08:55:01;;;;;;;2.20;1.73;;;21.90;70.80;;;;;;5044950;28;20385;-75
2022/03/24 08:57:27;;;;;;;9.38;1.55;;;21.80;72.30;;;;;;5049056;28;20017;-73
2022/03/24 09:00:00;;;;;;;2.15;0.93;;;22.50;70.90;;;;;;5052272;28;20492;-73
2022/03/24 09:02:26;;;;;;;1.35;1.20;;;22.70;70.70;;;;;;5050927;28;20020;-73
2022/03/24 09:04:52;;;;;;;2.97;1.67;;;22.40;69.20;;;;;;5051874;28;20090;-74
2022/03/24 09:07:18;;;;;;;2.65;1.23;;;22.00;70.50;;;;;;5048478;28;20491;-75
2022/03/24 09:09:44;;;;;;;1.40;1.13;;;22.20;70.80;;;;;;5057729;28;20036;-73
2022/03/24 09:12:10;;;;;;;1.42;0.85;;;22.10;68.80;;;;;;5050104;28;20074;-73
2022/03/24 09:14:41;;;;;;;1.50;1.13;;;22.30;70.40;;;;;;5040836;28;20473;-75
2022/03/24 09:17:08;;;;;;;0.95;0.75;;;22.40;68.50;;;;;;5051062;28;20023;-74
2022/03/24 09:19:34;;;;;;;1.67;1.25;;;21.30;67.90;;;;;;5049355;28;20017;-75
2022/03/24 09:22:02;;;;;;;1.48;1.38;;;20.90;69.90;;;;;;5061960;28;20020;-75
2022/03/24 09:24:28;;;;;;;2.25;0.90;;;20.80;69.00;;;;;;5055711;28;20028;-74
2022/03/24 09:26:54;;;;;;;1.42;1.33;;;21.20;68.70;;;;;;5066353;28;20025;-74
2022/03/24 09:29:21;;;;;;;1.60;1.42;;;21.50;68.50;;;;;;5040617;28;20037;-77
2022/03/24 09:31:47;;;;;;;1.67;1.17;;;21.30;67.90;;;;;;5049412;28;20021;-74
2022/03/24 09:34:13;;;;;;;3.20;1.63;;;22.00;69.20;;;;;;5057878;28;20141;-75
2022/03/24 09:36:40;;;;;;;1.40;1.02;;;22.40;67.90;;;;;;5045544;28;20061;-76
2022/03/24 09:39:07;;;;;;;1.30;1.10;;;22.00;66.90;;;;;;5069055;28;20093;-75
2022/03/24 09:41:34;;;;;;;3.45;1.83;;;21.30;66.90;;;;;;5061588;28;20029;-74
2022/03/24 09:44:00;;;;;;;1.63;1.00;;;21.70;67.70;;;;;;5043604;28;20075;-74
2022/03/24 09:46:28;;;;;;;1.00;0.85;;;21.90;67.10;;;;;;5041931;28;20033;-75
2022/03/24 09:48:54;;;;;;;2.13;1.00;;;21.60;67.50;;;;;;5059291;28;20120;-74
2022/03/24 09:51:22;;;;;;;1.67;0.90;;;21.80;68.30;;;;;;5064763;28;20391;-74
2022/03/24 09:53:48;;;;;;;1.40;1.10;;;21.90;69.40;;;;;;5053999;28;20029;-74
2022/03/24 09:56:14;;;;;;;1.73;0.70;;;21.50;68.10;;;;;;5056806;28;20040;-74
2022/03/24 09:58:44;;;;;;;5.53;1.65;;;20.80;68.70;;;;;;5065740;28;20024;-76
2022/03/24 10:01:10;;;;;;;1.38;0.90;;;19.60;70.00;;;;;;5064486;28;20017;-76
2022/03/24 10:03:37;;;;;;;2.95;0.85;;;18.20;70.10;;;;;;5055063;28;20391;-76
2022/03/24 10:06:07;;;;;;;3.03;0.55;;;18.20;71.10;;;;;;5057581;28;20024;-76
2022/03/24 10:08:34;;;;;;;1.00;1.00;;;18.10;70.70;;;;;;5046020;28;20532;-77
2022/03/24 10:11:07;;;;;;;1.13;0.40;;;17.90;72.60;;;;;;5056454;28;20062;-78
2022/03/24 10:13:44;;;;;;;3.05;0.85;;;17.90;72.50;;;;;;5039331;28;20120;-76
2022/03/24 10:16:12;;;;;;;0.75;0.60;;;18.10;72.50;;;;;;5041296;28;20033;-77
2022/03/24 10:18:57;;;;;;;1.20;0.50;;;18.10;75.30;;;;;;5049570;28;20112;-77
2022/03/24 10:21:23;;;;;;;1.75;1.20;;;18.30;75.10;;;;;;5054357;28;20107;-76
2022/03/24 10:23:49;;;;;;;1.15;0.80;;;18.40;73.40;;;;;;5060938;28;20496;-76
2022/03/24 10:26:15;;;;;;;2.05;1.33;;;18.40;73.20;;;;;;5063267;28;20031;-76
2022/03/24 10:28:57;;;;;;;0.82;0.77;;;18.00;72.50;;;;;;5060666;28;20040;-76
2022/03/24 10:31:36;;;;;;;1.02;0.90;;;18.20;70.80;;;;;;5063909;28;20028;-76
2022/03/24 10:34:03;;;;;;;2.70;0.70;;;17.60;71.30;;;;;;5050274;28;20037;-75
2022/03/24 10:36:29;;;;;;;1.17;1.08;;;17.60;72.60;;;;;;5051691;28;20039;-75
2022/03/24 10:39:00;;;;;;;1.23;0.63;;;17.40;73.20;;;;;;5040114;28;20024;-76
2022/03/24 10:41:27;;;;;;;0.85;0.52;;;17.40;71.30;;;;;;5056698;28;20020;-75
2022/03/24 10:43:54;;;;;;;2.00;1.00;;;17.20;71.60;;;;;;5067138;28;20045;-75
2022/03/24 10:46:22;;;;;;;1.33;0.95;;;16.90;71.70;;;;;;5045618;28;20029;-75
2022/03/24 10:48:50;;;;;;;1.02;0.40;;;16.70;73.50;;;;;;5066238;28;20537;-75
2022/03/24 10:51:27;;;;;;;1.05;0.68;;;16.70;72.80;;;;;;5046356;28;20052;-74
2022/03/24 10:54:15;;;;;;;2.15;0.93;;;16.60;73.40;;;;;;5048032;28;20482;-75
2022/03/24 10:56:51;;;;;;;1.17;0.52;;;16.80;74.00;;;;;;5055859;28;20080;-75
2022/03/24 10:59:17;;;;;;;2.85;1.63;;;17.10;73.80;;;;;;5056237;28;20052;-75
2022/03/24 11:01:43;;;;;;;2.40;0.70;;;17.40;76.50;;;;;;5055998;28;20788;-75
2022/03/24 11:04:09;;;;;;;0.73;0.73;;;17.60;74.40;;;;;;5057025;28;20488;-75
2022/03/24 11:06:34;;;;;;;0.70;0.60;;;17.70;73.30;;;;;;5061080;28;20499;-75
2022/03/24 11:09:01;;;;;;;3.35;1.75;;;17.90;72.80;;;;;;5042404;28;20033;-75
2022/03/24 11:11:28;;;;;;;7.03;1.98;;;17.50;72.80;;;;;;5061536;28;20043;-75
2022/03/24 11:13:58;;;;;;;0.80;0.70;;;17.10;73.00;;;;;;5056685;28;20025;-75
2022/03/24 11:16:29;;;;;;;1.77;1.20;;;17.20;74.00;;;;;;5054283;28;20054;-75
2022/03/24 11:18:57;;;;;;;0.75;0.70;;;17.00;74.10;;;;;;5066856;28;20139;-75
2022/03/24 11:21:25;;;;;;;0.88;0.88;;;17.10;75.00;;;;;;5044942;28;20478;-75
2022/03/24 11:23:54;;;;;;;5.15;1.17;;;17.30;73.30;;;;;;5060569;28;20017;-76
2022/03/24 11:26:21;;;;;;;1.75;1.15;;;17.20;75.80;;;;;;5052837;28;20021;-75
2022/03/24 11:28:49;;;;;;;0.45;0.30;;;17.30;75.00;;;;;;5063304;28;20028;-75
2022/03/24 11:31:16;;;;;;;0.50;0.32;;;17.50;76.10;;;;;;5063979;28;20108;-75
2022/03/24 11:33:45;;;;;;;0.50;0.35;;;17.70;75.60;;;;;;5070579;28;20457;-75
2022/03/24 11:36:13;;;;;;;1.58;0.68;;;17.60;75.00;;;;;;5053605;28;20033;-75
2022/03/24 11:38:40;;;;;;;1.67;0.60;;;17.80;76.40;;;;;;5048972;28;20406;-75
2022/03/24 11:41:12;;;;;;;0.88;0.57;;;17.90;75.80;;;;;;5049576;28;20553;-76
2022/03/24 11:43:43;;;;;;;1.55;1.23;;;18.10;76.90;;;;;;5052544;28;20408;-75
2022/03/24 11:46:16;;;;;;;0.70;0.65;;;18.40;76.90;;;;;;5053077;28;20036;-75
2022/03/24 11:48:43;;;;;;;0.95;0.60;;;18.40;76.00;;;;;;5069130;28;20027;-75
2022/03/24 11:51:17;;;;;;;0.30;0.30;;;18.40;75.60;;;;;;5054164;28;20112;-75
2022/03/24 11:53:43;;;;;;;4.38;0.95;;;18.50;76.30;;;;;;5061229;28;20051;-75
2022/03/24 11:56:09;;;;;;;1.10;0.77;;;18.70;74.90;;;;;;5057642;28;20033;-75
2022/03/24 11:58:36;;;;;;;1.15;0.80;;;18.20;74.60;;;;;;5067472;28;20027;-75
2022/03/24 12:01:20;;;;;;;0.52;0.52;;;18.20;73.80;;;;;;5053463;28;20074;-75
2022/03/24 12:03:56;;;;;;;6.75;1.75;;;18.30;71.90;;;;;;5054313;28;20021;-75
2022/03/24 12:06:41;;;;;;;0.98;0.40;;;18.50;72.00;;;;;;5046533;28;20063;-76
2022/03/24 12:09:09;;;;;;;1.75;0.90;;;18.90;73.10;;;;;;5050087;28;20127;-75
2022/03/24 12:11:47;;;;;;;1.25;0.40;;;19.30;72.70;;;;;;5053038;28;20053;-75
2022/03/24 12:14:31;;;;;;;0.63;0.40;;;19.30;70.70;;;;;;5052218;28;20483;-75
2022/03/24 12:17:02;;;;;;;0.68;0.57;;;19.30;71.20;;;;;;5045405;28;20025;-75
2022/03/24 12:19:47;;;;;;;5.97;2.35;;;19.40;71.60;;;;;;5053326;28;20025;-75
2022/03/24 12:22:25;;;;;;;0.60;0.50;;;19.20;69.10;;;;;;5048029;28;20084;-76
2022/03/24 12:24:51;;;;;;;1.15;0.43;;;19.80;70.20;;;;;;5040467;28;20404;-75
2022/03/24 12:27:17;;;;;;;0.70;0.35;;;20.10;69.50;;;;;;5066928;28;20565;-74
2022/03/24 12:30:13;;;;;;;4.57;1.08;;;19.80;70.00;;;;;;5058869;28;20154;-73
2022/03/24 12:32:40;;;;;;;0.70;0.70;;;19.50;69.80;;;;;;5068806;28;20059;-74
2022/03/24 12:35:07;;;;;;;0.60;0.30;;;19.60;72.10;;;;;;5068767;28;20024;-75
2022/03/24 12:37:33;;;;;;;0.47;0.32;;;20.10;72.60;;;;;;5059773;28;20407;-75
2022/03/24 12:40:14;;;;;;;0.43;0.38;;;20.50;71.50;;;;;;5060686;28;20518;-74
2022/03/24 12:42:47;;;;;;;0.35;0.20;;;20.30;71.20;;;;;;5053948;28;20025;-74
2022/03/24 12:45:33;;;;;;;3.50;2.13;;;20.20;73.10;;;;;;5056543;28;20111;-74
2022/03/24 12:48:06;;;;;;;0.38;0.35;;;20.20;71.10;;;;;;5048661;28;20452;-74
2022/03/24 12:50:45;;;;;;;0.40;0.40;;;20.30;72.40;;;;;;5055627;28;20032;-73
2022/03/24 12:53:11;;;;;;;2.15;0.75;;;20.30;71.30;;;;;;5050086;28;20044;-73
2022/03/24 12:55:39;;;;;;;0.43;0.30;;;20.00;71.50;;;;;;5050931;28;20484;-75